sensor_id;sensor_type;location;lat;lon;timestamp;pressure;altitude;pressure_sealevel;temperature;humidity
29505;BME280;16452;54.174;12.092;2022-09-02T00:01:16;102221.50;;;18.44;79.67
29505;BME280;16452;54.174;12.092;2022-09-02T00:03:44;102218.13;;;17.84;83.04
29505;BME280;16452;54.174;12.092;2022-09-02T00:06:10;102217.25;;;18.14;82.09
29505;BME280;16452;54.174;12.092;2022-09-02T00:08:37;102212.06;;;18.26;81.75
29505;BME280;16452;54.174;12.092;2022-09-02T00:11:05;102213.94;;;18.24;81.94
29505;BME280;16452;54.174;12.092;2022-09-02T00:13:35;102217.25;;;18.42;80.99
29505;BME280;16452;54.174;12.092;2022-09-02T00:16:02;102214.22;;;18.20;79.88
29505;BME280;16452;54.174;12.092;2022-09-02T00:18:29;102212.91;;;17.98;78.26
29505;BME280;16452;54.174;12.092;2022-09-02T00:20:55;102212.91;;;17.98;75.50
29505;BME280;16452;54.174;12.092;2022-09-02T00:23:21;102214.91;;;17.79;74.26
29505;BME280;16452;54.174;12.092;2022-09-02T00:25:47;102202.31;;;17.84;73.88
29505;BME280;16452;54.174;12.092;2022-09-02T00:28:14;102207.78;;;17.95;73.02
29505;BME280;16452;54.174;12.092;2022-09-02T00:30:41;102204.13;;;17.98;72.63
29505;BME280;16452;54.174;12.092;2022-09-02T00:33:08;102201.50;;;17.98;72.13
29505;BME280;16452;54.174;12.092;2022-09-02T00:35:33;102198.09;;;17.82;72.42
29505;BME280;16452;54.174;12.092;2022-09-02T00:38:00;102212.38;;;17.78;72.50
29505;BME280;16452;54.174;12.092;2022-09-02T00:40:27;102201.31;;;18.15;71.53
29505;BME280;16452;54.174;12.092;2022-09-02T00:42:53;102204.00;;;17.85;72.03
29505;BME280;16452;54.174;12.092;2022-09-02T00:45:20;102206.84;;;17.96;70.97
29505;BME280;16452;54.174;12.092;2022-09-02T00:47:46;102204.06;;;17.99;70.91
29505;BME280;16452;54.174;12.092;2022-09-02T00:50:17;102208.78;;;17.64;72.19
29505;BME280;16452;54.174;12.092;2022-09-02T00:52:57;102210.59;;;17.78;72.37
29505;BME280;16452;54.174;12.092;2022-09-02T00:55:26;102207.59;;;17.84;72.52
29505;BME280;16452;54.174;12.092;2022-09-02T00:58:19;102202.03;;;17.75;73.37
29505;BME280;16452;54.174;12.092;2022-09-02T01:00:48;102209.25;;;17.71;73.83
29505;BME280;16452;54.174;12.092;2022-09-02T01:03:20;102202.31;;;17.84;73.97
29505;BME280;16452;54.174;12.092;2022-09-02T01:05:48;102204.69;;;18.03;73.19
29505;BME280;16452;54.174;12.092;2022-09-02T01:08:21;102204.88;;;18.00;74.16
29505;BME280;16452;54.174;12.092;2022-09-02T01:10:51;102197.81;;;18.00;74.83
29505;BME280;16452;54.174;12.092;2022-09-02T01:13:25;102199.44;;;18.03;75.23
29505;BME280;16452;54.174;12.092;2022-09-02T01:18:44;102198.13;;;18.10;75.34
29505;BME280;16452;54.174;12.092;2022-09-02T01:21:11;102192.53;;;17.86;75.21
29505;BME280;16452;54.174;12.092;2022-09-02T01:23:38;102189.31;;;17.81;75.50
29505;BME280;16452;54.174;12.092;2022-09-02T01:26:04;102189.56;;;18.21;75.42
29505;BME280;16452;54.174;12.092;2022-09-02T01:28:33;102180.50;;;18.39;75.65
29505;BME280;16452;54.174;12.092;2022-09-02T01:31:00;102191.22;;;18.36;76.60
29505;BME280;16452;54.174;12.092;2022-09-02T01:33:27;102184.34;;;18.47;76.22
29505;BME280;16452;54.174;12.092;2022-09-02T01:35:53;102181.81;;;18.60;76.93
29505;BME280;16452;54.174;12.092;2022-09-02T01:38:21;102182.66;;;18.46;78.50
29505;BME280;16452;54.174;12.092;2022-09-02T01:40:47;102177.78;;;18.55;78.55
29505;BME280;16452;54.174;12.092;2022-09-02T01:43:18;102181.81;;;18.60;78.39
29505;BME280;16452;54.174;12.092;2022-09-02T01:45:46;102183.06;;;18.55;78.32
29505;BME280;16452;54.174;12.092;2022-09-02T01:48:13;102178.34;;;18.60;77.90
29505;BME280;16452;54.174;12.092;2022-09-02T01:50:44;102178.72;;;18.25;78.33
29505;BME280;16452;54.174;12.092;2022-09-02T01:53:10;102180.41;;;18.12;78.25
29505;BME280;16452;54.174;12.092;2022-09-02T01:55:36;102171.34;;;18.30;77.39
29505;BME280;16452;54.174;12.092;2022-09-02T01:58:02;102176.72;;;18.15;77.39
29505;BME280;16452;54.174;12.092;2022-09-02T02:00:29;102172.78;;;18.22;76.34
29505;BME280;16452;54.174;12.092;2022-09-02T02:02:55;102174.75;;;18.32;76.13
29505;BME280;16452;54.174;12.092;2022-09-02T02:05:21;102172.47;;;18.12;76.29
29505;BME280;16452;54.174;12.092;2022-09-02T02:07:47;102174.94;;;18.15;75.95
29505;BME280;16452;54.174;12.092;2022-09-02T02:10:17;102171.34;;;18.30;74.84
29505;BME280;16452;54.174;12.092;2022-09-02T02:12:43;102177.75;;;18.12;74.58
29505;BME280;16452;54.174;12.092;2022-09-02T02:15:14;102178.50;;;18.00;74.33
29505;BME280;16452;54.174;12.092;2022-09-02T02:17:41;102179.81;;;18.07;75.00
29505;BME280;16452;54.174;12.092;2022-09-02T02:20:11;102176.91;;;18.12;74.61
29505;BME280;16452;54.174;12.092;2022-09-02T02:22:37;102174.38;;;18.10;74.38
29505;BME280;16452;54.174;12.092;2022-09-02T02:25:05;102175.97;;;18.13;74.70
29505;BME280;16452;54.174;12.092;2022-09-02T02:27:31;102178.41;;;18.01;74.71
29505;BME280;16452;54.174;12.092;2022-09-02T02:29:57;102176.16;;;17.95;74.33
29505;BME280;16452;54.174;12.092;2022-09-02T02:32:23;102175.13;;;17.98;74.39
29505;BME280;16452;54.174;12.092;2022-09-02T02:34:50;102172.19;;;18.02;74.30
29505;BME280;16452;54.174;12.092;2022-09-02T02:37:16;102174.56;;;17.93;74.87
29505;BME280;16452;54.174;12.092;2022-09-02T02:39:42;102167.59;;;17.92;75.13
29505;BME280;16452;54.174;12.092;2022-09-02T02:42:09;102172.50;;;17.98;74.71
29505;BME280;16452;54.174;12.092;2022-09-02T02:44:38;102173.63;;;18.08;73.84
29505;BME280;16452;54.174;12.092;2022-09-02T02:47:06;102178.50;;;18.00;73.52
29505;BME280;16452;54.174;12.092;2022-09-02T02:49:39;102162.97;;;18.10;73.56
29505;BME280;16452;54.174;12.092;2022-09-02T02:52:09;102166.72;;;18.05;72.87
29505;BME280;16452;54.174;12.092;2022-09-02T02:54:36;102175.88;;;18.00;72.71
29505;BME280;16452;54.174;12.092;2022-09-02T02:57:03;102163.16;;;18.06;72.64
29505;BME280;16452;54.174;12.092;2022-09-02T02:59:29;102170.34;;;18.04;72.71
29505;BME280;16452;54.174;12.092;2022-09-02T03:01:55;102168.19;;;18.11;72.46
29505;BME280;16452;54.174;12.092;2022-09-02T03:04:21;102173.44;;;18.11;72.70
29505;BME280;16452;54.174;12.092;2022-09-02T03:06:47;102174.72;;;17.90;73.73
29505;BME280;16452;54.174;12.092;2022-09-02T03:09:13;102165.69;;;17.80;73.49
29505;BME280;16452;54.174;12.092;2022-09-02T03:11:39;102166.97;;;17.73;75.08
29505;BME280;16452;54.174;12.092;2022-09-02T03:14:05;102166.69;;;17.77;75.41
29505;BME280;16452;54.174;12.092;2022-09-02T03:16:34;102166.34;;;17.83;75.70
29505;BME280;16452;54.174;12.092;2022-09-02T03:19:00;102160.91;;;17.86;75.78
29505;BME280;16452;54.174;12.092;2022-09-02T03:21:26;102162.97;;;17.81;76.02
29505;BME280;16452;54.174;12.092;2022-09-02T03:23:52;102166.50;;;17.66;76.70
29505;BME280;16452;54.174;12.092;2022-09-02T03:26:21;102165.31;;;17.86;76.78
29505;BME280;16452;54.174;12.092;2022-09-02T03:28:49;102158.53;;;17.82;77.21
29505;BME280;16452;54.174;12.092;2022-09-02T03:31:21;102155.31;;;17.77;77.45
29505;BME280;16452;54.174;12.092;2022-09-02T03:33:47;102154.94;;;17.83;77.15
29505;BME280;16452;54.174;12.092;2022-09-02T03:36:26;102155.06;;;17.81;77.92
29505;BME280;16452;54.174;12.092;2022-09-02T03:38:53;102160.47;;;17.64;78.14
29505;BME280;16452;54.174;12.092;2022-09-02T03:41:19;102153.44;;;17.64;78.10
29505;BME280;16452;54.174;12.092;2022-09-02T03:43:44;102152.34;;;17.53;78.71
29505;BME280;16452;54.174;12.092;2022-09-02T03:46:10;102147.69;;;17.72;78.05
29505;BME280;16452;54.174;12.092;2022-09-02T03:48:37;102151.81;;;17.62;78.20
29505;BME280;16452;54.174;12.092;2022-09-02T03:51:03;102151.03;;;17.60;78.88
29505;BME280;16452;54.174;12.092;2022-09-02T03:53:30;102148.41;;;17.60;78.68
29505;BME280;16452;54.174;12.092;2022-09-02T03:55:56;102161.34;;;17.49;79.02
29505;BME280;16452;54.174;12.092;2022-09-02T03:58:22;102155.06;;;17.51;79.30
29505;BME280;16452;54.174;12.092;2022-09-02T04:00:53;102157.28;;;17.73;78.58
29505;BME280;16452;54.174;12.092;2022-09-02T04:03:19;102160.47;;;17.64;79.18
29505;BME280;16452;54.174;12.092;2022-09-02T04:05:47;102158.50;;;17.68;79.23
29505;BME280;16452;54.174;12.092;2022-09-02T04:08:14;102161.69;;;17.43;79.32
29505;BME280;16452;54.174;12.092;2022-09-02T04:10:39;102167.69;;;17.60;79.02
29505;BME280;16452;54.174;12.092;2022-09-02T04:13:05;102161.66;;;17.58;78.83
29505;BME280;16452;54.174;12.092;2022-09-02T04:15:31;102164.66;;;17.52;78.56
29505;BME280;16452;54.174;12.092;2022-09-02T04:17:57;102160.81;;;17.28;79.42
29505;BME280;16452;54.174;12.092;2022-09-02T04:20:23;102166.69;;;17.47;78.95
29505;BME280;16452;54.174;12.092;2022-09-02T04:22:49;102164.66;;;17.22;79.71
29505;BME280;16452;54.174;12.092;2022-09-02T04:25:14;102164.19;;;17.30;79.00
29505;BME280;16452;54.174;12.092;2022-09-02T04:27:40;102165.44;;;17.09;78.77
29505;BME280;16452;54.174;12.092;2022-09-02T04:30:07;102165.16;;;17.29;78.78
29505;BME280;16452;54.174;12.092;2022-09-02T04:32:35;102166.16;;;17.27;78.07
29505;BME280;16452;54.174;12.092;2022-09-02T04:35:01;102166.66;;;17.33;77.28
29505;BME280;16452;54.174;12.092;2022-09-02T04:37:27;102170.50;;;17.28;77.13
29505;BME280;16452;54.174;12.092;2022-09-02T04:39:53;102166.25;;;17.25;76.68
29505;BME280;16452;54.174;12.092;2022-09-02T04:42:19;102165.44;;;17.39;76.34
29505;BME280;16452;54.174;12.092;2022-09-02T04:44:45;102165.50;;;17.23;77.01
29505;BME280;16452;54.174;12.092;2022-09-02T04:47:11;102161.78;;;17.11;78.40
29505;BME280;16452;54.174;12.092;2022-09-02T04:49:37;102166.84;;;17.14;78.66
29505;BME280;16452;54.174;12.092;2022-09-02T04:52:03;102170.19;;;17.18;78.66
29505;BME280;16452;54.174;12.092;2022-09-02T04:54:29;102161.66;;;17.29;78.28
29505;BME280;16452;54.174;12.092;2022-09-02T04:56:55;102169.41;;;17.16;78.55
29505;BME280;16452;54.174;12.092;2022-09-02T04:59:21;102164.09;;;17.32;78.17
29505;BME280;16452;54.174;12.092;2022-09-02T05:01:47;102164.16;;;17.46;77.71
29505;BME280;16452;54.174;12.092;2022-09-02T05:04:14;102171.50;;;17.41;77.71
29505;BME280;16452;54.174;12.092;2022-09-02T05:06:40;102166.75;;;17.32;78.12
29505;BME280;16452;54.174;12.092;2022-09-02T05:09:06;102170.94;;;17.20;78.69
29505;BME280;16452;54.174;12.092;2022-09-02T05:11:33;102166.59;;;17.19;79.35
29505;BME280;16452;54.174;12.092;2022-09-02T05:14:03;102169.88;;;17.38;78.45
29505;BME280;16452;54.174;12.092;2022-09-02T05:16:36;102167.00;;;17.27;79.10
29505;BME280;16452;54.174;12.092;2022-09-02T05:19:04;102168.47;;;17.17;79.36
29505;BME280;16452;54.174;12.092;2022-09-02T05:21:30;102169.91;;;17.22;79.39
29505;BME280;16452;54.174;12.092;2022-09-02T05:23:56;102165.94;;;17.15;80.20
29505;BME280;16452;54.174;12.092;2022-09-02T05:26:23;102158.34;;;17.25;79.50
29505;BME280;16452;54.174;12.092;2022-09-02T05:28:50;102166.09;;;17.42;78.94
29505;BME280;16452;54.174;12.092;2022-09-02T05:31:18;102169.22;;;17.35;78.45
29505;BME280;16452;54.174;12.092;2022-09-02T05:33:45;102167.38;;;17.51;77.85
29505;BME280;16452;54.174;12.092;2022-09-02T05:36:17;102168.56;;;17.61;77.79
29505;BME280;16452;54.174;12.092;2022-09-02T05:38:44;102170.84;;;17.67;77.72
29505;BME280;16452;54.174;12.092;2022-09-02T05:41:17;102170.50;;;18.30;75.37
29505;BME280;16452;54.174;12.092;2022-09-02T05:43:44;102159.78;;;18.88;72.51
29505;BME280;16452;54.174;12.092;2022-09-02T05:46:14;102161.59;;;19.54;69.89
29505;BME280;16452;54.174;12.092;2022-09-02T05:48:43;102160.16;;;20.00;68.27
29505;BME280;16452;54.174;12.092;2022-09-02T05:51:28;102155.47;;;20.55;66.02
29505;BME280;16452;54.174;12.092;2022-09-02T05:53:57;102159.16;;;21.12;65.66
29505;BME280;16452;54.174;12.092;2022-09-02T05:56:26;102154.69;;;20.65;66.19
29505;BME280;16452;54.174;12.092;2022-09-02T05:58:55;102159.75;;;20.68;65.95
29505;BME280;16452;54.174;12.092;2022-09-02T06:01:22;102154.38;;;20.94;65.12
29505;BME280;16452;54.174;12.092;2022-09-02T06:03:48;102159.88;;;21.14;63.27
29505;BME280;16452;54.174;12.092;2022-09-02T06:06:15;102162.66;;;20.89;63.12
29505;BME280;16452;54.174;12.092;2022-09-02T06:08:40;102157.03;;;21.17;62.52
29505;BME280;16452;54.174;12.092;2022-09-02T06:11:09;102157.03;;;21.17;62.41
29505;BME280;16452;54.174;12.092;2022-09-02T06:13:39;102157.00;;;20.70;64.70
29505;BME280;16452;54.174;12.092;2022-09-02T06:16:06;102158.63;;;20.60;64.46
29505;BME280;16452;54.174;12.092;2022-09-02T06:18:35;102159.69;;;20.44;64.50
29505;BME280;16452;54.174;12.092;2022-09-02T06:21:03;102164.06;;;20.33;65.91
29505;BME280;16452;54.174;12.092;2022-09-02T06:23:30;102168.72;;;20.29;66.39
29505;BME280;16452;54.174;12.092;2022-09-02T06:25:56;102165.13;;;20.18;66.53
29505;BME280;16452;54.174;12.092;2022-09-02T06:28:22;102165.22;;;20.29;66.47
29505;BME280;16452;54.174;12.092;2022-09-02T06:30:47;102161.44;;;20.07;67.66
29505;BME280;16452;54.174;12.092;2022-09-02T06:33:14;102164.72;;;20.36;66.09
29505;BME280;16452;54.174;12.092;2022-09-02T06:35:43;102161.63;;;20.42;65.87
29505;BME280;16452;54.174;12.092;2022-09-02T06:38:10;102165.97;;;20.43;66.16
29505;BME280;16452;54.174;12.092;2022-09-02T06:40:51;102167.34;;;20.49;66.47
29505;BME280;16452;54.174;12.092;2022-09-02T06:43:17;102170.13;;;20.71;65.19
29505;BME280;16452;54.174;12.092;2022-09-02T06:45:43;102169.06;;;20.74;65.08
29505;BME280;16452;54.174;12.092;2022-09-02T06:48:10;102169.66;;;20.28;66.14
29505;BME280;16452;54.174;12.092;2022-09-02T06:50:43;102165.84;;;20.45;66.04
29505;BME280;16452;54.174;12.092;2022-09-02T06:53:09;102171.13;;;20.58;66.37
29505;BME280;16452;54.174;12.092;2022-09-02T06:55:38;102162.00;;;20.85;66.04
29505;BME280;16452;54.174;12.092;2022-09-02T06:58:04;102166.81;;;21.04;66.16
29505;BME280;16452;54.174;12.092;2022-09-02T07:00:30;102165.09;;;21.16;64.89
29505;BME280;16452;54.174;12.092;2022-09-02T07:02:57;102157.81;;;21.30;64.52
29505;BME280;16452;54.174;12.092;2022-09-02T07:05:42;102157.69;;;20.84;64.94
29505;BME280;16452;54.174;12.092;2022-09-02T07:08:07;102154.66;;;21.25;64.83
29505;BME280;16452;54.174;12.092;2022-09-02T07:10:40;102151.31;;;21.35;65.24
29505;BME280;16452;54.174;12.092;2022-09-02T07:13:07;102157.91;;;21.05;66.02
29505;BME280;16452;54.174;12.092;2022-09-02T07:15:52;102154.84;;;21.46;64.39
29505;BME280;16452;54.174;12.092;2022-09-02T07:18:18;102157.81;;;21.65;63.59
29505;BME280;16452;54.174;12.092;2022-09-02T07:20:46;102159.84;;;21.73;64.18
29505;BME280;16452;54.174;12.092;2022-09-02T07:23:13;102155.13;;;22.00;62.93
29505;BME280;16452;54.174;12.092;2022-09-02T07:25:39;102162.78;;;21.92;63.01
29505;BME280;16452;54.174;12.092;2022-09-02T07:28:09;102156.44;;;21.95;62.70
29505;BME280;16452;54.174;12.092;2022-09-02T07:30:39;102151.97;;;22.29;62.82
29505;BME280;16452;54.174;12.092;2022-09-02T07:33:05;102153.78;;;22.39;61.96
29505;BME280;16452;54.174;12.092;2022-09-02T07:35:31;102148.81;;;22.46;58.38
29505;BME280;16452;54.174;12.092;2022-09-02T07:37:58;102151.59;;;22.44;56.46
29505;BME280;16452;54.174;12.092;2022-09-02T07:40:24;102149.91;;;22.32;56.86
29505;BME280;16452;54.174;12.092;2022-09-02T07:42:50;102151.97;;;22.40;56.55
29505;BME280;16452;54.174;12.092;2022-09-02T07:45:16;102147.47;;;22.74;56.50
29505;BME280;16452;54.174;12.092;2022-09-02T07:47:42;102147.72;;;22.60;56.03
29505;BME280;16452;54.174;12.092;2022-09-02T07:50:08;102150.59;;;22.68;54.76
29505;BME280;16452;54.174;12.092;2022-09-02T07:52:35;102141.28;;;22.62;53.85
29505;BME280;16452;54.174;12.092;2022-09-02T07:55:01;102145.69;;;22.95;53.61
29505;BME280;16452;54.174;12.092;2022-09-02T07:57:27;102146.50;;;23.07;53.42
29505;BME280;16452;54.174;12.092;2022-09-02T07:59:53;102139.84;;;22.80;53.14
29505;BME280;16452;54.174;12.092;2022-09-02T08:02:19;102147.50;;;23.06;52.81
29505;BME280;16452;54.174;12.092;2022-09-02T08:04:45;102136.63;;;23.29;52.31
29505;BME280;16452;54.174;12.092;2022-09-02T08:07:11;102140.53;;;22.93;49.94
29505;BME280;16452;54.174;12.092;2022-09-02T08:09:36;102142.88;;;23.08;50.64
29505;BME280;16452;54.174;12.092;2022-09-02T08:12:02;102147.72;;;23.03;50.09
29505;BME280;16452;54.174;12.092;2022-09-02T08:14:28;102152.03;;;22.72;49.89
29505;BME280;16452;54.174;12.092;2022-09-02T08:16:56;102150.94;;;23.17;50.25
29505;BME280;16452;54.174;12.092;2022-09-02T08:19:23;102141.47;;;23.24;47.94
29505;BME280;16452;54.174;12.092;2022-09-02T08:21:50;102142.31;;;23.25;48.22
29505;BME280;16452;54.174;12.092;2022-09-02T08:24:15;102142.53;;;23.33;47.19
29505;BME280;16452;54.174;12.092;2022-09-02T08:26:41;102145.59;;;23.28;46.89
29505;BME280;16452;54.174;12.092;2022-09-02T08:29:08;102143.56;;;23.42;47.21
29505;BME280;16452;54.174;12.092;2022-09-02T08:31:36;102148.97;;;23.72;46.42
29505;BME280;16452;54.174;12.092;2022-09-02T08:34:03;102142.31;;;23.57;47.64
29505;BME280;16452;54.174;12.092;2022-09-02T08:36:28;102146.19;;;23.73;46.66
29505;BME280;16452;54.174;12.092;2022-09-02T08:38:55;102146.19;;;23.73;47.08
29505;BME280;16452;54.174;12.092;2022-09-02T08:41:26;102146.34;;;24.02;46.17
29505;BME280;16452;54.174;12.092;2022-09-02T08:43:57;102151.22;;;23.77;46.33
29505;BME280;16452;54.174;12.092;2022-09-02T08:46:27;102139.44;;;24.00;45.22
29505;BME280;16452;54.174;12.092;2022-09-02T08:49:03;102142.72;;;24.13;44.65
29505;BME280;16452;54.174;12.092;2022-09-02T08:51:49;102145.81;;;24.08;44.45
29505;BME280;16452;54.174;12.092;2022-09-02T08:54:54;102142.22;;;24.19;44.07
29505;BME280;16452;54.174;12.092;2022-09-02T08:57:23;102143.81;;;24.01;44.21
29505;BME280;16452;54.174;12.092;2022-09-02T08:59:57;102147.41;;;23.90;44.38
29505;BME280;16452;54.174;12.092;2022-09-02T09:02:59;102139.63;;;24.08;43.79
29505;BME280;16452;54.174;12.092;2022-09-02T09:08:39;102133.69;;;23.95;43.33
29505;BME280;16452;54.174;12.092;2022-09-02T09:20:37;102123.34;;;24.32;42.94
29505;BME280;16452;54.174;12.092;2022-09-02T09:25:47;102127.34;;;24.17;42.91
29505;BME280;16452;54.174;12.092;2022-09-02T09:28:15;102125.81;;;23.63;43.89
29505;BME280;16452;54.174;12.092;2022-09-02T09:30:41;102117.59;;;24.27;43.10
29505;BME280;16452;54.174;12.092;2022-09-02T09:33:07;102117.06;;;24.12;42.47
29505;BME280;16452;54.174;12.092;2022-09-02T09:35:55;102117.38;;;24.59;42.30
29505;BME280;16452;54.174;12.092;2022-09-02T09:38:32;102105.59;;;24.61;42.19
29505;BME280;16452;54.174;12.092;2022-09-02T09:41:25;102111.38;;;24.17;43.59
29505;BME280;16452;54.174;12.092;2022-09-02T09:43:53;102104.28;;;24.27;43.19
29505;BME280;16452;54.174;12.092;2022-09-02T09:46:28;102106.75;;;24.68;42.00
29505;BME280;16452;54.174;12.092;2022-09-02T09:48:56;102105.19;;;24.16;42.69
29505;BME280;16452;54.174;12.092;2022-09-02T09:51:23;102104.28;;;24.27;42.94
29505;BME280;16452;54.174;12.092;2022-09-02T09:53:49;102103.31;;;24.37;42.28
29505;BME280;16452;54.174;12.092;2022-09-02T09:58:45;102100.81;;;24.55;41.24
29505;BME280;16452;54.174;12.092;2022-09-02T10:01:23;102102.34;;;24.48;42.82
29505;BME280;16452;54.174;12.092;2022-09-02T10:09:33;102089.47;;;24.72;41.11
29505;BME280;16452;54.174;12.092;2022-09-02T10:12:07;102090.75;;;24.68;41.63
29505;BME280;16452;54.174;12.092;2022-09-02T10:14:44;102092.28;;;24.71;42.20
29505;BME280;16452;54.174;12.092;2022-09-02T10:23:10;102091.31;;;24.62;41.73
29505;BME280;16452;54.174;12.092;2022-09-02T10:29:09;102089.63;;;24.71;40.79
29505;BME280;16452;54.174;12.092;2022-09-02T10:32:15;102085.59;;;24.95;39.82
29505;BME280;16452;54.174;12.092;2022-09-02T10:35:11;102083.75;;;24.86;38.61
29505;BME280;16452;54.174;12.092;2022-09-02T10:38:42;102075.91;;;24.94;39.19
29505;BME280;16452;54.174;12.092;2022-09-02T10:41:40;102074.06;;;25.05;40.60
29505;BME280;16452;54.174;12.092;2022-09-02T10:44:45;102073.34;;;25.31;40.74
29505;BME280;16452;54.174;12.092;2022-09-02T10:47:38;102067.28;;;25.29;40.40
29505;BME280;16452;54.174;12.092;2022-09-02T10:50:20;102057.94;;;25.16;38.83
29505;BME280;16452;54.174;12.092;2022-09-02T10:53:09;102066.91;;;24.95;39.22
29505;BME280;16452;54.174;12.092;2022-09-02T10:56:15;102060.84;;;25.22;38.30
29505;BME280;16452;54.174;12.092;2022-09-02T10:59:11;102058.22;;;25.03;38.08
29505;BME280;16452;54.174;12.092;2022-09-02T11:01:51;102055.97;;;24.89;38.88
29505;BME280;16452;54.174;12.092;2022-09-02T11:04:33;102048.22;;;25.05;37.81
29505;BME280;16452;54.174;12.092;2022-09-02T11:07:04;102055.94;;;24.99;37.47
29505;BME280;16452;54.174;12.092;2022-09-02T11:10:07;102044.47;;;24.88;38.72
29505;BME280;16452;54.174;12.092;2022-09-02T11:12:38;102055.53;;;24.84;38.95
29505;BME280;16452;54.174;12.092;2022-09-02T11:15:26;102050.91;;;24.95;38.35
29505;BME280;16452;54.174;12.092;2022-09-02T11:21:00;102040.38;;;24.94;38.83
29505;BME280;16452;54.174;12.092;2022-09-02T11:26:10;102038.41;;;24.67;40.42
29505;BME280;16452;54.174;12.092;2022-09-02T11:29:26;102043.06;;;24.75;39.62
29505;BME280;16452;54.174;12.092;2022-09-02T11:31:46;102035.16;;;24.83;38.57
29505;BME280;16452;54.174;12.092;2022-09-02T11:34:39;102034.91;;;24.95;38.61
29505;BME280;16452;54.174;12.092;2022-09-02T11:37:09;102031.84;;;24.90;39.16
29505;BME280;16452;54.174;12.092;2022-09-02T11:39:46;102033.38;;;25.03;39.40
29505;BME280;16452;54.174;12.092;2022-09-02T11:48:22;102030.28;;;24.69;40.15
29505;BME280;16452;54.174;12.092;2022-09-02T11:53:56;102027.34;;;24.91;39.25
29505;BME280;16452;54.174;12.092;2022-09-02T11:56:28;102024.78;;;25.09;38.52
29505;BME280;16452;54.174;12.092;2022-09-02T11:58:59;102028.16;;;24.82;39.73
29505;BME280;16452;54.174;12.092;2022-09-02T12:01:50;102025.78;;;25.08;39.36
29505;BME280;16452;54.174;12.092;2022-09-02T12:04:21;102022.44;;;24.96;39.74
29505;BME280;16452;54.174;12.092;2022-09-02T12:09:51;102019.88;;;25.14;39.41
29505;BME280;16452;54.174;12.092;2022-09-02T12:15:14;102015.75;;;25.29;40.76
29505;BME280;16452;54.174;12.092;2022-09-02T12:26:14;102005.59;;;24.95;40.91
29505;BME280;16452;54.174;12.092;2022-09-02T12:28:42;102005.16;;;24.90;41.62
29505;BME280;16452;54.174;12.092;2022-09-02T12:31:35;102003.88;;;24.94;40.00
29505;BME280;16452;54.174;12.092;2022-09-02T12:36:52;101982.28;;;24.98;40.37
29505;BME280;16452;54.174;12.092;2022-09-02T12:44:57;101981.50;;;25.24;39.75
29505;BME280;16452;54.174;12.092;2022-09-02T12:50:49;101976.25;;;25.42;40.73
29505;BME280;16452;54.174;12.092;2022-09-02T12:53:56;101982.38;;;25.06;39.39
29505;BME280;16452;54.174;12.092;2022-09-02T12:56:22;101976.75;;;25.18;39.75
29505;BME280;16452;54.174;12.092;2022-09-02T12:58:54;101969.53;;;25.38;39.63
29505;BME280;16452;54.174;12.092;2022-09-02T13:01:53;101971.78;;;25.33;40.15
29505;BME280;16452;54.174;12.092;2022-09-02T13:05:19;101975.81;;;25.56;40.62
29505;BME280;16452;54.174;12.092;2022-09-02T13:10:39;101970.88;;;25.05;40.73
29505;BME280;16452;54.174;12.092;2022-09-02T13:14:04;101972.47;;;24.88;40.67
29505;BME280;16452;54.174;12.092;2022-09-02T13:16:48;101962.88;;;25.05;40.49
29505;BME280;16452;54.174;12.092;2022-09-02T13:22:32;101951.91;;;25.45;40.43
29505;BME280;16452;54.174;12.092;2022-09-02T13:31:26;101953.13;;;25.23;41.34
29505;BME280;16452;54.174;12.092;2022-09-02T13:34:18;101950.41;;;24.86;40.91
29505;BME280;16452;54.174;12.092;2022-09-02T13:36:45;101944.41;;;24.75;41.42
29505;BME280;16452;54.174;12.092;2022-09-02T13:41:48;101951.66;;;25.02;42.18
29505;BME280;16452;54.174;12.092;2022-09-02T13:44:22;101941.84;;;25.02;41.85
29505;BME280;16452;54.174;12.092;2022-09-02T13:46:53;101944.25;;;24.95;41.94
29505;BME280;16452;54.174;12.092;2022-09-02T13:49:26;101933.03;;;24.92;41.59
29505;BME280;16452;54.174;12.092;2022-09-02T13:51:55;101946.63;;;24.89;41.64
29505;BME280;16452;54.174;12.092;2022-09-02T13:54:33;101938.75;;;24.87;42.02
29505;BME280;16452;54.174;12.092;2022-09-02T13:57:05;101936.13;;;24.68;41.96
29505;BME280;16452;54.174;12.092;2022-09-02T13:59:39;101941.13;;;25.00;42.36
29505;BME280;16452;54.174;12.092;2022-09-02T14:02:34;101923.44;;;25.09;40.96
29505;BME280;16452;54.174;12.092;2022-09-02T14:05:14;101920.31;;;25.13;40.82
29505;BME280;16452;54.174;12.092;2022-09-02T14:07:48;101923.84;;;25.14;41.54
29505;BME280;16452;54.174;12.092;2022-09-02T14:10:18;101921.03;;;25.15;41.83
29505;BME280;16452;54.174;12.092;2022-09-02T14:12:45;101923.47;;;24.89;42.17
29505;BME280;16452;54.174;12.092;2022-09-02T14:15:16;101916.56;;;25.33;41.21
29505;BME280;16452;54.174;12.092;2022-09-02T14:17:42;101919.75;;;25.19;40.89
29505;BME280;16452;54.174;12.092;2022-09-02T14:20:21;101913.22;;;25.04;40.82
29505;BME280;16452;54.174;12.092;2022-09-02T14:22:56;101909.94;;;25.10;40.63
29505;BME280;16452;54.174;12.092;2022-09-02T14:25:23;101903.63;;;25.11;41.08
29505;BME280;16452;54.174;12.092;2022-09-02T14:27:57;101908.69;;;25.42;40.28
29505;BME280;16452;54.174;12.092;2022-09-02T14:43:59;101915.31;;;24.81;40.84
29505;BME280;16452;54.174;12.092;2022-09-02T14:46:34;101908.72;;;24.95;41.01